Time;durP1;ratioP1;P1;durP2;ratioP2;P2;SDS_P1;SDS_P2;PMS_P1;PMS_P2;Temp;Humidity;BMP_temperature;BMP_pressure;BME280_temperature;BME280_humidity;BME280_pressure;Samples;Min_cycle;Max_cycle;Signal;HPM_P1;HPM_P2
2021/05/14 00:02:03;;;;;;;0.55;0.20;;;10.00;98.00;;;;;;5016711;28;20053;-72
2021/05/14 00:04:29;;;;;;;0.20;0.20;;;10.00;98.00;;;;;;5016632;28;20058;-72
2021/05/14 00:06:55;;;;;;;0.20;0.20;;;10.00;98.00;;;;;;5016640;28;20026;-73
2021/05/14 00:09:21;;;;;;;2.58;0.20;;;10.10;98.00;;;;;;5016545;28;20100;-72
2021/05/14 00:11:47;;;;;;;0.65;0.20;;;10.00;98.00;;;;;;5018728;28;20029;-72
2021/05/14 00:14:13;;;;;;;1.50;0.30;;;10.00;98.00;;;;;;5020184;28;20033;-73
2021/05/14 00:16:40;;;;;;;1.00;0.20;;;10.00;98.00;;;;;;5019826;28;20065;-73
2021/05/14 00:19:06;;;;;;;3.22;0.22;;;10.00;98.00;;;;;;5019842;28;20029;-72
2021/05/14 00:21:33;;;;;;;0.50;0.20;;;10.00;98.00;;;;;;5020137;28;20041;-73
2021/05/14 00:23:59;;;;;;;0.17;0.17;;;10.00;98.00;;;;;;5019987;28;20057;-72
2021/05/14 00:26:26;;;;;;;0.40;0.30;;;10.00;98.00;;;;;;5019705;28;20091;-72
2021/05/14 00:28:51;;;;;;;2.92;0.30;;;10.10;98.00;;;;;;5019881;28;20120;-72
2021/05/14 00:31:18;;;;;;;5.25;0.40;;;10.10;98.00;;;;;;5019586;28;20057;-72
2021/05/14 00:33:43;;;;;;;0.75;0.30;;;10.10;98.00;;;;;;5019845;28;20319;-72
2021/05/14 00:36:10;;;;;;;0.73;0.30;;;10.10;98.00;;;;;;5019525;28;20028;-72
2021/05/14 00:38:36;;;;;;;1.13;0.30;;;10.20;98.00;;;;;;5019772;28;20314;-73
2021/05/14 00:41:03;;;;;;;0.80;0.32;;;10.20;98.00;;;;;;5019402;28;20110;-72
2021/05/14 00:43:28;;;;;;;2.70;0.50;;;10.20;98.00;;;;;;5019445;28;20430;-72
2021/05/14 00:45:54;;;;;;;1.25;0.22;;;10.30;98.00;;;;;;5019283;28;20076;-72
2021/05/14 00:48:20;;;;;;;0.60;0.30;;;10.30;98.00;;;;;;5019580;28;20068;-73
2021/05/14 00:50:46;;;;;;;1.75;0.35;;;10.30;98.00;;;;;;5019464;28;20048;-72
2021/05/14 00:53:12;;;;;;;2.25;0.30;;;10.30;98.00;;;;;;5019258;28;20030;-72
2021/05/14 00:55:38;;;;;;;0.85;0.40;;;10.30;98.00;;;;;;5019402;28;20034;-73
2021/05/14 00:58:04;;;;;;;1.15;0.30;;;10.30;98.00;;;;;;5019135;28;20084;-72
2021/05/14 01:00:30;;;;;;;0.20;0.20;;;10.30;98.00;;;;;;5019053;28;20025;-72
2021/05/14 01:02:56;;;;;;;0.20;0.20;;;10.30;98.00;;;;;;5019367;28;20361;-72
2021/05/14 01:05:23;;;;;;;0.30;0.20;;;10.20;98.00;;;;;;5018843;28;20039;-72
2021/05/14 01:07:50;;;;;;;2.10;0.20;;;10.20;98.00;;;;;;5018942;28;20037;-73
2021/05/14 01:10:17;;;;;;;0.45;0.28;;;10.30;98.00;;;;;;5019091;28;20037;-72
2021/05/14 01:12:43;;;;;;;3.83;0.38;;;10.30;98.00;;;;;;5019158;28;20026;-72
2021/05/14 01:15:10;;;;;;;1.10;0.40;;;10.30;98.00;;;;;;5018709;28;20032;-73
2021/05/14 01:17:35;;;;;;;1.48;0.40;;;10.30;98.00;;;;;;5019077;28;20141;-72
2021/05/14 01:20:03;;;;;;;0.70;0.30;;;10.30;98.00;;;;;;5018967;28;20065;-72
2021/05/14 01:22:28;;;;;;;2.08;0.20;;;10.20;98.00;;;;;;5017966;28;20304;-72
2021/05/14 01:24:55;;;;;;;3.28;0.68;;;10.20;98.00;;;;;;5018664;28;20037;-73
2021/05/14 01:27:21;;;;;;;0.60;0.28;;;10.30;98.00;;;;;;5018407;28;20049;-72
2021/05/14 01:29:47;;;;;;;0.90;0.30;;;10.40;98.00;;;;;;5018725;28;20028;-72
2021/05/14 01:32:14;;;;;;;0.50;0.30;;;10.50;98.00;;;;;;5018480;28;20026;-73
2021/05/14 01:34:40;;;;;;;0.88;0.30;;;10.60;98.00;;;;;;5018356;28;20050;-73
2021/05/14 01:37:06;;;;;;;0.30;0.20;;;10.60;97.80;;;;;;5018665;28;20018;-73
2021/05/14 01:39:32;;;;;;;1.13;0.30;;;10.60;97.80;;;;;;5018589;28;20418;-73
2021/05/14 01:41:59;;;;;;;0.30;0.22;;;10.70;97.70;;;;;;5018621;28;20071;-73
2021/05/14 01:44:25;;;;;;;0.45;0.20;;;10.70;97.80;;;;;;5018518;28;20414;-72
2021/05/14 01:46:51;;;;;;;0.45;0.30;;;10.70;97.90;;;;;;5018510;28;20034;-72
2021/05/14 01:49:17;;;;;;;0.98;0.20;;;10.70;98.00;;;;;;5018322;28;20398;-72
2021/05/14 01:51:42;;;;;;;0.25;0.20;;;10.70;98.00;;;;;;5018385;28;20022;-72
2021/05/14 01:54:08;;;;;;;3.63;0.30;;;10.70;98.00;;;;;;5018320;28;20052;-72
2021/05/14 01:56:34;;;;;;;0.98;0.20;;;10.70;98.00;;;;;;5018472;28;20390;-73
2021/05/14 01:59:00;;;;;;;0.60;0.30;;;10.80;98.00;;;;;;5017950;28;20037;-72
2021/05/14 02:01:26;;;;;;;1.50;0.47;;;10.80;98.00;;;;;;5017924;28;20030;-72
2021/05/14 02:03:52;;;;;;;0.30;0.30;;;10.90;98.00;;;;;;5018154;28;20033;-72
2021/05/14 02:06:18;;;;;;;0.20;0.15;;;10.90;97.70;;;;;;5018162;28;20021;-72
2021/05/14 02:08:44;;;;;;;0.93;0.30;;;10.90;97.60;;;;;;5018034;28;20034;-72
2021/05/14 02:11:10;;;;;;;0.70;0.22;;;10.90;97.20;;;;;;5017763;28;20030;-72
2021/05/14 02:13:41;;;;;;;0.38;0.20;;;11.00;97.30;;;;;;5017724;28;20018;-72
2021/05/14 02:16:08;;;;;;;3.20;0.20;;;11.00;97.40;;;;;;5017668;28;20076;-72
2021/05/14 02:18:35;;;;;;;0.77;0.13;;;10.90;97.70;;;;;;5017679;28;20480;-72
2021/05/14 02:21:01;;;;;;;0.22;0.20;;;10.90;97.50;;;;;;5017866;28;20026;-73
2021/05/14 02:23:27;;;;;;;1.05;0.28;;;10.80;98.00;;;;;;5018358;28;20029;-73
2021/05/14 02:25:53;;;;;;;1.77;0.20;;;10.80;98.00;;;;;;5017568;28;20057;-72
2021/05/14 02:28:20;;;;;;;1.98;0.32;;;10.80;98.00;;;;;;5017468;28;20433;-72
2021/05/14 02:30:45;;;;;;;1.50;0.30;;;10.80;98.00;;;;;;5017655;28;20314;-72
2021/05/14 02:33:11;;;;;;;0.80;0.30;;;10.90;98.00;;;;;;5017554;28;20037;-72
2021/05/14 02:35:37;;;;;;;4.65;0.30;;;10.90;98.00;;;;;;5017608;28;20105;-73
2021/05/14 02:38:04;;;;;;;0.15;0.10;;;10.80;98.00;;;;;;5017332;28;20033;-73
2021/05/14 02:40:30;;;;;;;1.85;0.20;;;10.70;98.00;;;;;;5017596;28;20367;-72
2021/05/14 02:42:56;;;;;;;0.40;0.20;;;10.60;98.00;;;;;;5017276;28;20057;-72
2021/05/14 02:45:22;;;;;;;0.43;0.30;;;10.50;98.00;;;;;;5017412;28;20295;-72
2021/05/14 02:47:48;;;;;;;1.55;0.30;;;10.40;98.00;;;;;;5017423;28;20029;-72
2021/05/14 02:50:14;;;;;;;1.13;0.30;;;10.40;98.00;;;;;;5017056;28;20314;-72
2021/05/14 02:52:40;;;;;;;0.57;0.22;;;10.50;98.00;;;;;;5017785;28;20034;-72
2021/05/14 02:55:07;;;;;;;1.50;0.45;;;10.60;98.00;;;;;;5016922;28;20084;-72
2021/05/14 02:57:33;;;;;;;0.52;0.20;;;10.60;98.00;;;;;;5017318;28;20358;-73
2021/05/14 02:59:59;;;;;;;0.57;0.13;;;10.60;95.90;;;;;;5016965;28;20418;-72
2021/05/14 03:02:25;;;;;;;0.50;0.22;;;10.70;95.50;;;;;;5017009;28;20080;-72
2021/05/14 03:04:50;;;;;;;2.85;0.30;;;10.60;96.00;;;;;;5016940;28;20026;-72
2021/05/14 03:07:16;;;;;;;0.60;0.30;;;10.60;96.60;;;;;;5017253;28;20042;-72
2021/05/14 03:09:42;;;;;;;2.22;0.40;;;10.50;96.60;;;;;;5017116;28;20068;-72
2021/05/14 03:12:08;;;;;;;2.05;0.30;;;10.50;97.20;;;;;;5017246;28;20026;-73
2021/05/14 03:14:34;;;;;;;0.57;0.40;;;10.50;97.50;;;;;;5016760;28;20022;-72
2021/05/14 03:17:00;;;;;;;0.82;0.40;;;10.50;98.00;;;;;;5016821;28;20026;-73
2021/05/14 03:19:26;;;;;;;0.60;0.38;;;10.30;98.00;;;;;;5017096;28;20030;-73
2021/05/14 03:21:52;;;;;;;1.13;0.30;;;10.30;98.00;;;;;;5017087;28;20052;-72
2021/05/14 03:24:18;;;;;;;0.60;0.40;;;10.30;98.00;;;;;;5016921;28;20068;-72
2021/05/14 03:26:47;;;;;;;1.73;0.47;;;10.40;98.00;;;;;;5016571;28;20077;-73
2021/05/14 03:29:13;;;;;;;2.40;0.60;;;10.30;98.00;;;;;;5016582;28;20041;-72
2021/05/14 03:31:39;;;;;;;1.95;0.65;;;10.30;98.00;;;;;;5016657;28;20026;-72
2021/05/14 03:34:05;;;;;;;3.00;1.10;;;10.30;98.00;;;;;;5016642;28;20022;-72
2021/05/14 03:36:30;;;;;;;3.72;0.47;;;10.30;98.00;;;;;;5016939;28;20200;-72
2021/05/14 03:38:57;;;;;;;1.08;0.60;;;10.30;98.00;;;;;;5016616;28;20054;-72
2021/05/14 03:43:55;;;;;;;0.52;0.40;;;10.30;98.00;;;;;;5016602;28;20022;-73
2021/05/14 03:46:21;;;;;;;0.70;0.40;;;10.30;98.00;;;;;;5018417;28;20113;-72
2021/05/14 03:48:46;;;;;;;0.40;0.30;;;10.30;98.00;;;;;;5020630;28;20024;-72
2021/05/14 03:51:12;;;;;;;1.13;0.40;;;10.30;98.00;;;;;;5020638;28;20100;-73
2021/05/14 03:53:38;;;;;;;0.85;0.45;;;10.30;98.00;;;;;;5020301;28;20024;-73
2021/05/14 03:56:04;;;;;;;3.22;0.45;;;10.40;98.00;;;;;;5020648;28;20032;-72
2021/05/14 03:58:29;;;;;;;0.73;0.25;;;10.50;98.00;;;;;;5020246;28;20076;-72
2021/05/14 04:00:55;;;;;;;1.38;0.40;;;10.50;98.00;;;;;;5020186;28;20065;-72
2021/05/14 04:03:22;;;;;;;1.30;1.00;;;10.60;98.00;;;;;;5020517;28;20022;-73
2021/05/14 04:05:49;;;;;;;1.55;1.05;;;10.70;96.30;;;;;;5020033;28;20049;-72
2021/05/14 04:08:15;;;;;;;1.55;0.93;;;10.80;95.60;;;;;;5020351;28;20026;-73
2021/05/14 04:16:03;;;;;;;0.70;0.40;;;10.80;96.70;;;;;;5020193;28;20068;-73
2021/05/14 04:18:29;;;;;;;0.50;0.30;;;10.70;96.00;;;;;;5020183;28;20022;-72
2021/05/14 04:20:54;;;;;;;0.60;0.40;;;10.70;96.30;;;;;;5020160;28;20326;-72
2021/05/14 04:23:20;;;;;;;1.02;0.43;;;10.70;96.50;;;;;;5020345;28;20322;-73
2021/05/14 04:25:46;;;;;;;0.50;0.35;;;10.80;97.10;;;;;;5019442;28;20032;-73
2021/05/14 04:28:12;;;;;;;1.88;0.60;;;10.90;97.60;;;;;;5019751;28;20474;-73
2021/05/14 04:30:39;;;;;;;0.98;0.50;;;10.90;96.10;;;;;;5019827;28;20161;-73
2021/05/14 04:33:05;;;;;;;3.22;0.68;;;10.90;96.60;;;;;;5019939;28;20026;-72
2021/05/14 04:35:32;;;;;;;1.25;0.80;;;10.90;96.40;;;;;;5019787;28;20339;-72
2021/05/14 04:37:58;;;;;;;2.70;1.20;;;10.90;96.10;;;;;;5019819;28;20018;-73
2021/05/14 04:40:24;;;;;;;4.38;0.70;;;10.90;96.80;;;;;;5019735;28;20379;-72
2021/05/14 04:42:50;;;;;;;1.52;0.70;;;10.90;98.00;;;;;;5019774;28;20030;-73
2021/05/14 04:45:16;;;;;;;1.15;0.75;;;10.90;98.00;;;;;;5019639;28;20314;-72
2021/05/14 04:47:42;;;;;;;1.20;0.60;;;10.80;98.00;;;;;;5019296;28;20037;-73
2021/05/14 04:50:08;;;;;;;1.60;0.60;;;10.80;98.00;;;;;;5019518;28;20030;-72
2021/05/14 04:52:36;;;;;;;1.27;0.60;;;10.80;98.00;;;;;;5019557;28;20105;-72
2021/05/14 04:55:02;;;;;;;2.75;0.50;;;10.80;98.00;;;;;;5019226;28;20052;-73
2021/05/14 04:57:27;;;;;;;3.55;0.30;;;10.90;98.00;;;;;;5019323;28;20022;-72
2021/05/14 04:59:53;;;;;;;2.30;0.38;;;10.90;98.00;;;;;;5019411;28;20033;-73
2021/05/14 05:02:19;;;;;;;5.13;0.40;;;11.10;98.00;;;;;;5019435;28;20025;-72
2021/05/14 05:04:45;;;;;;;1.45;0.40;;;11.20;98.00;;;;;;5018984;28;20311;-72
2021/05/14 05:07:11;;;;;;;0.98;0.30;;;11.30;97.80;;;;;;5018942;28;20109;-72
2021/05/14 05:09:37;;;;;;;1.02;0.30;;;11.40;97.10;;;;;;5018869;28;20030;-72
2021/05/14 05:12:03;;;;;;;6.10;0.30;;;11.40;97.20;;;;;;5018903;28;20029;-72
2021/05/14 05:14:29;;;;;;;1.90;0.40;;;11.50;97.00;;;;;;5017729;28;20071;-72
2021/05/14 05:16:55;;;;;;;0.65;0.30;;;11.60;96.10;;;;;;5019116;28;20313;-72
2021/05/14 05:19:21;;;;;;;0.30;0.30;;;11.70;95.50;;;;;;5019012;28;20164;-72
2021/05/14 05:21:50;;;;;;;0.85;0.30;;;11.70;96.50;;;;;;5019022;28;20291;-72
2021/05/14 05:24:16;;;;;;;0.82;0.30;;;11.80;96.70;;;;;;5018810;28;20326;-72
2021/05/14 05:26:41;;;;;;;2.53;0.40;;;11.80;97.10;;;;;;5018445;28;20058;-73
2021/05/14 05:29:07;;;;;;;1.33;0.30;;;11.80;96.90;;;;;;5018461;28;20036;-72
2021/05/14 05:31:33;;;;;;;1.90;0.30;;;11.70;97.40;;;;;;5018575;28;20030;-73
2021/05/14 05:33:58;;;;;;;0.75;0.52;;;11.70;96.30;;;;;;5018715;28;20026;-73
2021/05/14 05:36:24;;;;;;;0.17;0.17;;;11.70;96.30;;;;;;5018404;28;20321;-73
2021/05/14 05:38:50;;;;;;;2.05;0.50;;;11.60;96.90;;;;;;5018680;28;20076;-72
2021/05/14 05:41:17;;;;;;;1.73;0.68;;;11.50;97.10;;;;;;5018251;28;20025;-72
2021/05/14 05:43:44;;;;;;;1.45;0.90;;;11.50;95.80;;;;;;5018252;28;20025;-72
2021/05/14 05:46:10;;;;;;;3.58;0.77;;;11.40;95.70;;;;;;5018229;28;20056;-72
2021/05/14 05:48:36;;;;;;;1.48;0.75;;;11.40;97.60;;;;;;5018521;28;20022;-72
2021/05/14 05:51:02;;;;;;;1.95;0.98;;;11.40;97.90;;;;;;5018028;28;20033;-73
2021/05/14 05:53:27;;;;;;;1.70;1.15;;;11.40;96.80;;;;;;5018175;28;20030;-73
2021/05/14 05:55:53;;;;;;;1.60;1.00;;;11.40;96.30;;;;;;5018405;28;20029;-73
2021/05/14 05:58:19;;;;;;;2.80;1.23;;;11.40;95.90;;;;;;5018008;28;20104;-72
2021/05/14 06:00:47;;;;;;;1.20;0.90;;;11.40;96.80;;;;;;5017887;28;20026;-72
2021/05/14 06:03:14;;;;;;;1.95;1.45;;;11.50;96.60;;;;;;5017982;28;20042;-72
2021/05/14 06:05:40;;;;;;;2.25;1.40;;;11.50;97.20;;;;;;5018115;28;20038;-73
2021/05/14 06:08:07;;;;;;;2.90;1.15;;;11.50;97.20;;;;;;5017788;28;20072;-73
2021/05/14 06:10:33;;;;;;;3.55;1.35;;;11.60;95.30;;;;;;5017623;28;20025;-72
2021/05/14 06:12:59;;;;;;;2.05;1.25;;;11.60;96.70;;;;;;5018136;28;20118;-72
2021/05/14 06:15:24;;;;;;;5.13;1.60;;;11.70;96.70;;;;;;5017951;28;20101;-72
2021/05/14 06:17:50;;;;;;;2.30;1.48;;;11.70;95.50;;;;;;5017699;28;20427;-72
2021/05/14 06:20:19;;;;;;;2.20;1.60;;;11.80;96.20;;;;;;5017919;28;20030;-72
2021/05/14 06:22:45;;;;;;;2.35;1.58;;;11.90;96.30;;;;;;5033123;28;20065;-72
2021/05/14 06:25:11;;;;;;;4.05;1.80;;;12.00;94.30;;;;;;5017628;28;20091;-72
2021/05/14 06:27:37;;;;;;;2.85;1.48;;;12.00;93.70;;;;;;5017374;28;20108;-72
2021/05/14 06:30:04;;;;;;;2.75;1.58;;;12.00;95.00;;;;;;5017679;28;20049;-73
2021/05/14 06:32:30;;;;;;;2.38;1.50;;;12.00;93.90;;;;;;5017498;28;20025;-72
2021/05/14 06:34:56;;;;;;;2.88;1.70;;;12.00;93.30;;;;;;5017684;28;20022;-72
2021/05/14 06:37:22;;;;;;;3.38;1.60;;;12.00;95.00;;;;;;5017636;28;20097;-72
2021/05/14 06:39:48;;;;;;;3.47;1.67;;;12.10;94.90;;;;;;5017622;28;20488;-72
2021/05/14 06:42:15;;;;;;;4.47;1.50;;;12.20;94.80;;;;;;5017604;28;20307;-73
2021/05/14 06:44:41;;;;;;;2.53;1.60;;;12.40;93.90;;;;;;5017190;28;20449;-72
2021/05/14 06:47:06;;;;;;;2.58;1.63;;;12.50;93.20;;;;;;5017157;28;20038;-72
2021/05/14 06:49:32;;;;;;;4.93;1.55;;;12.60;92.60;;;;;;5017146;28;20034;-72
2021/05/14 06:51:58;;;;;;;4.95;1.30;;;12.70;93.10;;;;;;5017498;28;20076;-73
2021/05/14 06:54:24;;;;;;;3.67;1.42;;;12.90;92.30;;;;;;5016959;28;20347;-72
2021/05/14 06:56:51;;;;;;;1.85;1.48;;;13.10;91.40;;;;;;5017404;28;20330;-72
2021/05/14 06:59:18;;;;;;;3.55;1.70;;;13.30;91.30;;;;;;5017306;28;20365;-72
2021/05/14 07:01:44;;;;;;;3.00;1.50;;;13.50;88.90;;;;;;5017032;28;20076;-72
2021/05/14 07:04:09;;;;;;;2.45;1.08;;;13.70;91.50;;;;;;5017207;28;20030;-72
2021/05/14 07:06:35;;;;;;;2.38;1.50;;;13.80;90.90;;;;;;5016979;28;20439;-72
2021/05/14 07:09:01;;;;;;;3.22;1.20;;;13.80;88.20;;;;;;5017126;28;20030;-72
2021/05/14 07:11:27;;;;;;;2.30;1.38;;;13.90;90.10;;;;;;5017167;28;20022;-72
2021/05/14 07:13:53;;;;;;;2.30;1.17;;;14.00;88.60;;;;;;5016853;28;20091;-72
2021/05/14 07:16:19;;;;;;;3.00;1.17;;;14.00;86.90;;;;;;5016855;28;20030;-72
2021/05/14 07:18:44;;;;;;;4.35;1.33;;;14.10;85.90;;;;;;5017164;28;20092;-72
2021/05/14 07:21:10;;;;;;;2.55;1.20;;;14.10;85.50;;;;;;5018467;28;20041;-72
2021/05/14 07:23:35;;;;;;;1.05;0.80;;;14.20;84.50;;;;;;5021265;28;20022;-72
2021/05/14 07:26:01;;;;;;;2.78;1.20;;;14.30;83.80;;;;;;5020942;28;20486;-72
2021/05/14 07:28:27;;;;;;;2.63;1.23;;;14.40;83.20;;;;;;5020849;28;20042;-72
2021/05/14 07:30:53;;;;;;;2.90;1.15;;;14.30;84.70;;;;;;5020943;28;20030;-72
2021/05/14 07:33:19;;;;;;;3.55;1.40;;;14.40;87.00;;;;;;5020749;28;20022;-72
2021/05/14 07:35:44;;;;;;;3.90;1.20;;;14.70;89.10;;;;;;5020888;28;20024;-72
2021/05/14 07:38:10;;;;;;;2.40;1.00;;;14.80;89.00;;;;;;5020977;28;20042;-72
2021/05/14 07:40:37;;;;;;;1.65;0.80;;;14.80;83.00;;;;;;5020654;28;20374;-72
2021/05/14 07:43:03;;;;;;;2.80;1.00;;;14.70;83.10;;;;;;5020906;28;20026;-72
2021/05/14 07:45:29;;;;;;;4.60;1.90;;;14.70;84.40;;;;;;5020742;28;20033;-72
2021/05/14 07:47:55;;;;;;;6.80;1.30;;;14.70;88.20;;;;;;5020709;28;20028;-72
2021/05/14 07:50:20;;;;;;;1.75;0.95;;;14.60;83.60;;;;;;5020343;28;20112;-72
2021/05/14 07:52:46;;;;;;;1.63;0.90;;;14.70;86.90;;;;;;5020449;28;20029;-72
2021/05/14 07:55:12;;;;;;;2.67;0.80;;;14.80;83.20;;;;;;5020393;28;20030;-72
2021/05/14 07:57:38;;;;;;;5.97;1.80;;;14.80;87.70;;;;;;5020594;28;20326;-72
2021/05/14 08:00:05;;;;;;;1.33;0.90;;;14.70;85.40;;;;;;5020267;28;20040;-72
2021/05/14 08:02:31;;;;;;;7.00;1.00;;;14.50;87.40;;;;;;5020565;28;20029;-72
2021/05/14 08:04:56;;;;;;;2.58;0.98;;;14.30;88.20;;;;;;5020141;28;20410;-73
2021/05/14 08:07:22;;;;;;;1.38;0.88;;;14.30;88.20;;;;;;5020102;28;20033;-72
2021/05/14 08:09:48;;;;;;;2.95;0.90;;;14.20;86.00;;;;;;5020274;28;20029;-73
2021/05/14 08:12:14;;;;;;;2.35;0.98;;;14.30;89.40;;;;;;5020078;28;20052;-73
2021/05/14 08:14:40;;;;;;;2.00;0.85;;;14.40;87.20;;;;;;5019938;28;20022;-73
2021/05/14 08:17:05;;;;;;;3.08;1.40;;;14.70;86.20;;;;;;5020236;28;20026;-72
2021/05/14 08:19:31;;;;;;;4.63;1.10;;;15.00;85.60;;;;;;5019878;28;20437;-72
2021/05/14 08:21:57;;;;;;;4.28;1.02;;;15.40;84.50;;;;;;5020184;28;20038;-72
2021/05/14 08:24:23;;;;;;;2.65;0.60;;;15.80;85.30;;;;;;5019683;28;20080;-72
2021/05/14 08:26:49;;;;;;;1.38;0.60;;;16.10;80.40;;;;;;5019706;28;20053;-71
2021/05/14 08:29:14;;;;;;;2.72;0.70;;;16.10;83.90;;;;;;5019940;28;20322;-70
2021/05/14 08:31:40;;;;;;;2.08;0.63;;;16.30;84.60;;;;;;5019227;28;20353;-70
2021/05/14 08:34:10;;;;;;;1.92;0.70;;;16.30;79.30;;;;;;5019561;28;20033;-70
2021/05/14 08:36:36;;;;;;;2.60;0.60;;;16.90;81.10;;;;;;5019893;28;20022;-70
2021/05/14 08:39:02;;;;;;;2.28;0.60;;;17.00;75.40;;;;;;5019850;28;20322;-71
2021/05/14 08:41:28;;;;;;;1.20;0.60;;;16.70;79.80;;;;;;5019734;28;20095;-70
2021/05/14 08:43:54;;;;;;;1.65;1.13;;;16.30;82.90;;;;;;5019736;28;20438;-72
2021/05/14 08:46:24;;;;;;;3.40;1.60;;;16.00;81.10;;;;;;5019697;28;20028;-70
2021/05/14 08:48:52;;;;;;;4.63;1.45;;;15.70;82.70;;;;;;5019971;28;20326;-71
2021/05/14 08:51:23;;;;;;;1.60;1.20;;;15.70;82.00;;;;;;5019263;28;20418;-70
2021/05/14 08:53:49;;;;;;;2.83;1.95;;;15.50;82.20;;;;;;5019526;28;20026;-70
2021/05/14 08:56:15;;;;;;;4.95;1.88;;;15.40;82.40;;;;;;5019669;28;20322;-71
2021/05/14 08:58:41;;;;;;;4.65;1.70;;;15.30;84.50;;;;;;5019184;28;20041;-71
2021/05/14 09:01:08;;;;;;;4.68;2.00;;;15.30;85.40;;;;;;5019372;28;20088;-71
2021/05/14 09:04:02;;;;;;;3.28;2.17;;;15.20;85.10;;;;;;5019358;28;20026;-71
2021/05/14 09:06:38;;;;;;;3.40;2.15;;;15.00;85.30;;;;;;5019324;28;20088;-71
2021/05/14 09:09:06;;;;;;;3.60;2.15;;;14.70;86.90;;;;;;5018894;28;20329;-71
2021/05/14 09:11:53;;;;;;;3.10;2.17;;;14.50;86.90;;;;;;5018861;28;20085;-71
2021/05/14 09:14:49;;;;;;;3.45;2.55;;;14.10;88.70;;;;;;5018665;28;20035;-71
2021/05/14 09:17:17;;;;;;;3.97;2.67;;;13.80;89.80;;;;;;5019135;28;20069;-71
2021/05/14 09:19:47;;;;;;;5.70;2.40;;;13.70;91.70;;;;;;5018755;28;20414;-71
2021/05/14 09:22:21;;;;;;;3.53;2.78;;;13.60;93.00;;;;;;5018789;28;20438;-71
2021/05/14 09:24:49;;;;;;;6.82;2.90;;;13.50;92.70;;;;;;5018921;28;20030;-71
2021/05/14 09:27:29;;;;;;;13.43;3.78;;;13.50;93.00;;;;;;5018518;28;20062;-71
2021/05/14 09:29:58;;;;;;;7.70;4.40;;;13.40;94.20;;;;;;5018512;28;20053;-70
2021/05/14 09:32:34;;;;;;;8.93;3.83;;;13.20;95.20;;;;;;5018511;28;20430;-71
2021/05/14 09:35:02;;;;;;;6.00;4.15;;;12.90;96.00;;;;;;5018786;28;20366;-70
2021/05/14 09:37:28;;;;;;;8.82;3.72;;;12.70;96.30;;;;;;5018755;28;20295;-70
2021/05/14 09:40:12;;;;;;;5.55;3.40;;;12.50;97.60;;;;;;5018383;28;20362;-70
2021/05/14 09:42:39;;;;;;;8.18;3.58;;;12.50;98.00;;;;;;5018534;28;20104;-71
2021/05/14 09:45:22;;;;;;;14.68;4.05;;;12.50;98.00;;;;;;5017585;28;20026;-71
2021/05/14 09:48:14;;;;;;;7.30;3.58;;;12.40;98.00;;;;;;5018636;28;20359;-71
2021/05/14 09:50:40;;;;;;;22.75;4.35;;;12.40;98.00;;;;;;5018431;28;20300;-71
2021/05/14 09:53:18;;;;;;;5.50;3.25;;;12.40;98.00;;;;;;5018485;28;20114;-71
2021/05/14 09:56:01;;;;;;;7.00;4.20;;;12.40;98.00;;;;;;5017941;28;20034;-71
2021/05/14 09:58:30;;;;;;;7.75;3.63;;;12.30;98.00;;;;;;5018415;28;20054;-71
2021/05/14 10:00:56;;;;;;;8.13;3.38;;;12.30;98.00;;;;;;5018262;28;20103;-71
2021/05/14 10:03:25;;;;;;;8.63;3.10;;;12.40;98.00;;;;;;5018000;28;20033;-71
2021/05/14 10:05:53;;;;;;;5.78;3.75;;;12.40;98.00;;;;;;5018154;28;20180;-71
2021/05/14 10:08:20;;;;;;;4.63;3.20;;;12.50;98.00;;;;;;5017904;28;20489;-71
2021/05/14 10:10:47;;;;;;;8.07;3.33;;;12.50;98.00;;;;;;5018045;28;20055;-71
2021/05/14 10:13:12;;;;;;;6.25;3.72;;;12.50;98.00;;;;;;5017790;28;20026;-71
2021/05/14 10:15:39;;;;;;;4.35;3.50;;;12.60;97.90;;;;;;5020633;28;20084;-71
2021/05/14 10:18:14;;;;;;;6.40;3.60;;;12.50;98.00;;;;;;5026742;28;20132;-71
2021/05/14 10:20:42;;;;;;;5.20;3.45;;;12.50;98.00;;;;;;5017668;28;20036;-71
2021/05/14 10:23:09;;;;;;;5.18;3.40;;;12.40;98.00;;;;;;5017644;28;20033;-71
2021/05/14 10:25:38;;;;;;;5.65;3.78;;;12.30;98.00;;;;;;5017666;28;20314;-71
2021/05/14 10:28:19;;;;;;;6.38;3.50;;;12.20;98.00;;;;;;5017544;28;20049;-71
2021/05/14 10:31:07;;;;;;;6.13;3.75;;;12.20;98.00;;;;;;5017476;28;20022;-71
2021/05/14 10:33:44;;;;;;;3.53;3.20;;;12.20;98.00;;;;;;5017759;28;20104;-71
2021/05/14 10:36:19;;;;;;;3.42;3.13;;;12.30;98.00;;;;;;5017398;28;20468;-71
2021/05/14 10:39:04;;;;;;;3.33;2.05;;;12.20;98.00;;;;;;5017380;28;20030;-71
2021/05/14 10:41:29;;;;;;;3.05;2.15;;;12.20;98.00;;;;;;5017634;28;20034;-71
2021/05/14 10:44:01;;;;;;;6.22;3.03;;;12.00;98.00;;;;;;5017543;28;20101;-71
2021/05/14 10:46:28;;;;;;;4.53;2.92;;;11.80;98.00;;;;;;5017485;28;20037;-71
2021/05/14 10:49:06;;;;;;;4.57;3.35;;;11.70;98.00;;;;;;5017503;28;20317;-71
2021/05/14 10:51:50;;;;;;;5.75;2.97;;;11.70;98.00;;;;;;5017483;28;20040;-71
2021/05/14 10:54:45;;;;;;;7.32;3.00;;;11.70;98.00;;;;;;5017138;28;20326;-71
2021/05/14 10:57:34;;;;;;;6.72;3.42;;;11.70;98.00;;;;;;5016456;28;20026;-71
2021/05/14 11:00:22;;;;;;;4.40;3.15;;;11.80;98.00;;;;;;5016854;28;20030;-71
2021/05/14 11:03:14;;;;;;;3.50;2.92;;;11.80;98.00;;;;;;5016895;28;20029;-71
2021/05/14 11:05:47;;;;;;;3.10;2.80;;;11.70;98.00;;;;;;5016398;28;20030;-71
2021/05/14 11:08:35;;;;;;;3.40;2.65;;;11.70;98.00;;;;;;5017229;28;20022;-71
2021/05/14 11:11:08;;;;;;;3.42;1.77;;;11.70;98.00;;;;;;5016739;28;20038;-72
2021/05/14 11:13:45;;;;;;;2.28;1.77;;;11.70;98.00;;;;;;5017196;28;20029;-71
2021/05/14 11:16:36;;;;;;;2.22;1.70;;;11.80;98.00;;;;;;5017171;28;20108;-71
2021/05/14 11:19:26;;;;;;;4.40;2.25;;;12.00;98.00;;;;;;5017060;28;20018;-72
2021/05/14 11:22:13;;;;;;;2.42;1.85;;;12.00;98.00;;;;;;5017135;28;20359;-71
2021/05/14 11:24:47;;;;;;;2.25;1.60;;;12.10;98.00;;;;;;5017016;28;20054;-71
2021/05/14 11:27:35;;;;;;;2.90;1.48;;;12.30;98.00;;;;;;5016617;28;20054;-71
2021/05/14 11:30:03;;;;;;;2.03;1.40;;;12.50;98.00;;;;;;5016673;28;20359;-71
2021/05/14 11:32:32;;;;;;;1.60;1.15;;;12.70;98.00;;;;;;5016751;28;20030;-71
2021/05/14 11:35:20;;;;;;;1.73;0.80;;;13.00;98.00;;;;;;5016978;28;20022;-71
2021/05/14 11:37:54;;;;;;;2.03;0.75;;;13.20;96.70;;;;;;5016673;28;20053;-71
2021/05/14 11:40:25;;;;;;;1.25;0.68;;;13.40;95.20;;;;;;5016995;28;20105;-71
2021/05/14 11:42:59;;;;;;;0.82;0.52;;;13.60;93.40;;;;;;5017243;28;20061;-71
2021/05/14 11:45:26;;;;;;;0.47;0.38;;;13.90;94.30;;;;;;5016875;28;20104;-71
2021/05/14 11:47:53;;;;;;;0.70;0.50;;;14.20;93.70;;;;;;5016873;28;20054;-71
2021/05/14 11:50:27;;;;;;;4.05;0.50;;;14.40;93.50;;;;;;5016782;28;20030;-71
2021/05/14 11:52:53;;;;;;;0.50;0.20;;;15.10;95.60;;;;;;5016918;28;20080;-71
2021/05/14 11:55:20;;;;;;;1.85;0.45;;;15.90;91.10;;;;;;5016671;28;20020;-71
2021/05/14 11:57:48;;;;;;;1.33;0.28;;;16.50;85.30;;;;;;5016810;28;20044;-71
2021/05/14 12:00:15;;;;;;;5.63;0.43;;;16.80;80.60;;;;;;5016449;28;20076;-71
2021/05/14 12:02:44;;;;;;;1.88;0.30;;;17.00;86.70;;;;;;5016783;28;20037;-71
2021/05/14 12:05:14;;;;;;;0.70;0.40;;;17.10;80.60;;;;;;5016659;28;20083;-71
2021/05/14 12:07:42;;;;;;;5.70;0.40;;;17.10;80.00;;;;;;5018703;28;20041;-71
2021/05/14 12:10:10;;;;;;;0.65;0.52;;;16.80;76.50;;;;;;5020324;28;20022;-71
2021/05/14 12:12:38;;;;;;;0.75;0.38;;;16.50;80.80;;;;;;5020109;28;20030;-71
2021/05/14 12:15:24;;;;;;;0.40;0.30;;;16.30;84.30;;;;;;5020253;28;20026;-71
2021/05/14 12:18:00;;;;;;;1.63;0.55;;;16.10;85.50;;;;;;5020329;28;20026;-71
2021/05/14 12:20:34;;;;;;;0.82;0.32;;;16.10;89.00;;;;;;5019935;28;20038;-71
2021/05/14 12:23:02;;;;;;;0.60;0.20;;;16.40;86.40;;;;;;5020241;28;20033;-71
2021/05/14 12:25:40;;;;;;;2.78;0.57;;;16.70;88.20;;;;;;5019962;28;20084;-71
2021/05/14 12:28:41;;;;;;;3.33;0.90;;;16.70;86.00;;;;;;5020107;28;20091;-72
2021/05/14 12:31:13;;;;;;;1.83;0.43;;;16.60;88.20;;;;;;5019868;28;20033;-71
2021/05/14 12:34:02;;;;;;;1.02;0.22;;;16.20;84.00;;;;;;5019694;28;20041;-71
2021/05/14 12:36:33;;;;;;;1.20;0.40;;;15.80;81.30;;;;;;5019935;28;20029;-71
2021/05/14 12:39:13;;;;;;;1.58;0.38;;;15.40;83.10;;;;;;5019621;28;20433;-71
2021/05/14 12:41:40;;;;;;;0.80;0.40;;;15.10;84.60;;;;;;5019841;28;20033;-72
2021/05/14 12:44:08;;;;;;;0.80;0.30;;;15.00;87.10;;;;;;5019727;28;20032;-71
2021/05/14 12:46:34;;;;;;;1.40;0.40;;;15.00;85.80;;;;;;5019714;28;20034;-71
2021/05/14 12:49:10;;;;;;;0.43;0.30;;;14.90;83.90;;;;;;5019629;28;20095;-71
2021/05/14 12:51:37;;;;;;;1.50;0.55;;;14.80;84.10;;;;;;5019733;28;20300;-71
2021/05/14 12:54:03;;;;;;;0.90;0.45;;;14.70;88.40;;;;;;5019199;28;20018;-71
2021/05/14 12:56:29;;;;;;;1.55;0.30;;;14.60;86.70;;;;;;5019746;28;20399;-71
2021/05/14 12:59:00;;;;;;;0.70;0.30;;;14.70;86.40;;;;;;5019535;28;20030;-71
2021/05/14 13:01:27;;;;;;;1.05;0.50;;;14.80;88.10;;;;;;5019120;28;20440;-71